createdAt,value
2023-03-15T00:03:00.284Z,99221.00
2023-03-15T00:08:04.375Z,99239.06
2023-03-15T00:13:06.070Z,99257.06
2023-03-15T00:18:07.511Z,99240.41
2023-03-15T00:23:09.547Z,99245.31
2023-03-15T00:28:11.530Z,99258.13
2023-03-15T00:33:14.317Z,99273.31
2023-03-15T00:38:15.746Z,99284.03
2023-03-15T00:43:17.910Z,99311.44
2023-03-15T00:48:19.392Z,99309.53
2023-03-15T00:53:22.560Z,99309.38
2023-03-15T00:58:26.438Z,99312.00
2023-03-15T01:03:29.057Z,99306.44
2023-03-15T01:08:31.338Z,99309.91
2023-03-15T01:13:33.433Z,99324.56
2023-03-15T01:18:34.981Z,99337.53
2023-03-15T01:23:36.594Z,99327.88
2023-03-15T01:28:38.369Z,99336.59
2023-03-15T01:33:39.873Z,99344.53
2023-03-15T01:38:41.770Z,99345.50
2023-03-15T01:43:52.140Z,99347.88
2023-03-15T01:49:05.457Z,99369.41
2023-03-15T01:54:13.327Z,99377.06
2023-03-15T01:59:25.685Z,99381.38
2023-03-15T02:04:36.431Z,99397.19
2023-03-15T02:09:49.606Z,99416.09
2023-03-15T02:14:52.099Z,99437.91
2023-03-15T02:20:27.820Z,99446.41
2023-03-15T02:25:42.430Z,99449.41
2023-03-15T02:30:45.941Z,99443.00
2023-03-15T02:35:47.494Z,99466.03
2023-03-15T02:40:51.438Z,99479.19
2023-03-15T02:45:53.081Z,99480.38
2023-03-15T02:50:54.595Z,99488.00
2023-03-15T02:55:56.632Z,99496.13
2023-03-15T03:00:58.082Z,99481.91
2023-03-15T03:06:02.202Z,99496.97
2023-03-15T03:11:03.878Z,99491.81
2023-03-15T03:16:05.733Z,99495.47
2023-03-15T03:21:08.364Z,99519.50
2023-03-15T03:26:18.872Z,99520.81
2023-03-15T03:31:23.254Z,99520.81
2023-03-15T03:36:25.055Z,99520.25
2023-03-15T03:41:26.562Z,99543.44
2023-03-15T03:46:28.529Z,99559.38
2023-03-15T03:51:30.748Z,99559.00
2023-03-15T03:56:32.210Z,99558.03
2023-03-15T04:01:33.719Z,99564.59
2023-03-15T04:06:35.471Z,99563.56
2023-03-15T04:11:36.900Z,99577.47
2023-03-15T04:16:38.842Z,99574.06
2023-03-15T04:21:47.062Z,99582.75
2023-03-15T04:26:48.523Z,99597.91
2023-03-15T04:31:49.943Z,99621.91
2023-03-15T04:36:54.679Z,99627.91
2023-03-15T04:41:56.212Z,99635.25
2023-03-15T04:46:58.314Z,99633.19
2023-03-15T04:51:59.793Z,99620.38
2023-03-15T04:57:02.639Z,99625.06
2023-03-15T05:02:04.245Z,99633.84
2023-03-15T05:07:05.711Z,99644.34
2023-03-15T05:12:07.631Z,99654.38
2023-03-15T05:17:09.060Z,99652.34
2023-03-15T05:22:10.510Z,99655.34
2023-03-15T05:27:13.569Z,99673.47
2023-03-15T05:32:15.075Z,99682.13
2023-03-15T05:37:16.479Z,99697.09
2023-03-15T05:42:22.142Z,99706.00
2023-03-15T05:47:23.737Z,99724.28
2023-03-15T05:52:26.368Z,99727.88
2023-03-15T05:57:27.814Z,99741.16
2023-03-15T06:02:29.214Z,99743.28
2023-03-15T06:07:30.664Z,99754.56
2023-03-15T06:12:32.099Z,99754.56
2023-03-15T06:17:33.660Z,99766.34
2023-03-15T06:22:35.159Z,99777.97
2023-03-15T06:27:37.733Z,99783.13
2023-03-15T06:32:39.224Z,99786.41
2023-03-15T06:37:41.897Z,99796.19
2023-03-15T06:42:43.320Z,99797.56
2023-03-15T06:47:44.767Z,99807.72
2023-03-15T06:52:46.246Z,99813.28
2023-03-15T06:57:47.702Z,99818.56
2023-03-15T07:02:49.314Z,99823.84
2023-03-15T07:07:50.781Z,99835.25
2023-03-15T07:12:52.216Z,99833.38
2023-03-15T07:17:53.705Z,99837.34
2023-03-15T07:22:55.165Z,99845.03
2023-03-15T07:27:56.636Z,99848.78
2023-03-15T07:32:58.176Z,99863.44
2023-03-15T07:37:59.888Z,99874.28
2023-03-15T07:43:01.346Z,99882.00
2023-03-15T07:48:03.050Z,99878.94
2023-03-15T07:53:05.513Z,99886.22
2023-03-15T07:58:07.023Z,99884.91
2023-03-15T08:03:08.621Z,99880.69
2023-03-15T08:08:10.117Z,99911.38
2023-03-15T08:13:12.304Z,99907.47
2023-03-15T08:18:14.610Z,99919.34
2023-03-15T08:23:16.731Z,99911.66
2023-03-15T08:28:18.288Z,99915.28
2023-03-15T08:33:19.760Z,99927.59
2023-03-15T08:38:21.189Z,99930.25
2023-03-15T08:43:22.775Z,99932.25
2023-03-15T08:48:24.263Z,99944.06
2023-03-15T08:53:25.706Z,99944.97
2023-03-15T08:58:27.579Z,99954.00
2023-03-15T09:03:29.019Z,99957.56
2023-03-15T09:08:33.249Z,99972.31
2023-03-15T09:13:34.768Z,99975.00
2023-03-15T09:18:36.256Z,99971.84
2023-03-15T09:23:37.712Z,99968.19
2023-03-15T09:28:39.149Z,99970.94
2023-03-15T09:33:40.766Z,99967.25
2023-03-15T09:38:43.797Z,99973.09
2023-03-15T09:44:09.242Z,99976.66
2023-03-15T09:49:49.329Z,99983.50
2023-03-15T09:54:54.275Z,99982.38
2023-03-15T09:59:57.826Z,99976.31
2023-03-15T10:05:23.180Z,99970.97
2023-03-15T10:10:31.454Z,99979.16
2023-03-15T10:15:47.388Z,99975.19
2023-03-15T10:20:57.536Z,99973.16
2023-03-15T10:25:59.746Z,99965.78
2023-03-15T10:31:09.584Z,99954.09
2023-03-15T10:36:18.238Z,99964.66
2023-03-15T10:41:37.405Z,99963.25
2023-03-15T10:46:38.936Z,99974.16
2023-03-15T10:51:46.354Z,99969.31
2023-03-15T10:56:51.945Z,99981.94
2023-03-15T11:02:08.074Z,99983.91
2023-03-15T11:07:10.649Z,99992.50
2023-03-15T11:12:28.336Z,99987.13
2023-03-15T11:17:35.873Z,99961.75
2023-03-15T11:22:37.280Z,99979.97
2023-03-15T11:27:38.792Z,99992.69
2023-03-15T11:32:41.856Z,99986.34
2023-03-15T11:38:13.014Z,99982.72
2023-03-15T11:43:25.149Z,99989.78
2023-03-15T11:48:55.837Z,100001.94
2023-03-15T11:54:07.720Z,99994.19
2023-03-15T11:59:13.779Z,99986.47
2023-03-15T12:04:35.481Z,99993.13
2023-03-15T12:09:36.836Z,99997.84
2023-03-15T12:14:38.525Z,99982.38
2023-03-15T12:19:40.585Z,99990.78
2023-03-15T12:24:46.775Z,99985.53
2023-03-15T12:29:58.448Z,99983.91
2023-03-15T12:35:17.659Z,99992.25
2023-03-15T12:40:20.227Z,99982.16
2023-03-15T12:45:36.983Z,99977.22
2023-03-15T12:50:44.932Z,99982.38
2023-03-15T12:55:47.531Z,99997.03
2023-03-15T13:00:53.039Z,99997.03
2023-03-15T13:06:22.198Z,100000.91
2023-03-15T13:11:35.862Z,100004.72
2023-03-15T13:16:46.267Z,100001.38
2023-03-15T13:22:12.391Z,100005.19
2023-03-15T13:27:47.567Z,100013.16
2023-03-15T13:32:49.065Z,100025.41
2023-03-15T13:37:50.683Z,100027.97
2023-03-15T13:42:52.173Z,100033.34
2023-03-15T13:47:53.603Z,100040.91
2023-03-15T13:52:56.425Z,100037.03
2023-03-15T13:58:00.117Z,100047.66
2023-03-15T14:03:07.290Z,100047.28
2023-03-15T14:08:22.027Z,100060.22
2023-03-15T14:13:29.534Z,100056.44
2023-03-15T14:18:34.918Z,100066.00
2023-03-15T14:23:41.491Z,100051.06
2023-03-15T14:28:48.317Z,100055.25
2023-03-15T14:33:56.891Z,100059.22
2023-03-15T14:38:59.708Z,100064.59
2023-03-15T14:44:02.993Z,100051.94
2023-03-15T14:49:04.542Z,100057.19
2023-03-15T14:54:06.587Z,100055.91
2023-03-15T14:59:13.905Z,100057.34
2023-03-15T15:04:16.972Z,100054.44
2023-03-15T15:09:22.755Z,100052.50
2023-03-15T15:14:24.253Z,100057.06
2023-03-15T15:19:26.052Z,100076.19
2023-03-15T15:24:27.607Z,100090.00
2023-03-15T15:29:29.552Z,100103.19
2023-03-15T15:34:34.073Z,100110.00
2023-03-15T15:39:35.521Z,100117.00
2023-03-15T15:44:36.926Z,100115.63
2023-03-15T15:49:40.384Z,100107.47
2023-03-15T15:54:43.244Z,100120.31
2023-03-15T15:59:44.784Z,100114.00
2023-03-15T16:04:46.242Z,100115.94
2023-03-15T16:09:49.741Z,100113.28
2023-03-15T16:14:51.575Z,100123.59
2023-03-15T16:19:54.238Z,100132.13
2023-03-15T16:24:57.974Z,100137.94
2023-03-15T16:29:59.459Z,100140.81
2023-03-15T16:35:01.420Z,100145.63
2023-03-15T16:40:09.886Z,100157.28
2023-03-15T16:45:13.479Z,100171.56
2023-03-15T16:50:15.582Z,100178.28
2023-03-15T16:55:22.181Z,100188.56
2023-03-15T17:00:24.608Z,100187.41
2023-03-15T17:05:26.687Z,100191.31
2023-03-15T17:10:31.034Z,100207.38
2023-03-15T17:15:32.527Z,100210.84
2023-03-15T17:20:34.160Z,100209.09
2023-03-15T17:25:35.649Z,100218.59
2023-03-15T17:30:37.659Z,100218.59
2023-03-15T17:35:50.641Z,100216.88
2023-03-15T17:40:53.464Z,100223.44
2023-03-15T17:45:54.948Z,100230.34
2023-03-15T17:50:56.404Z,100229.50
2023-03-15T17:55:57.842Z,100239.06
2023-03-15T18:00:59.544Z,100252.22
2023-03-15T18:06:05.150Z,100266.22
2023-03-15T18:11:42.640Z,100269.88
2023-03-15T18:16:45.289Z,100271.91
2023-03-15T18:21:46.785Z,100264.81
2023-03-15T18:26:48.209Z,100266.06
2023-03-15T18:31:49.704Z,100272.56
2023-03-15T18:36:51.524Z,100271.78
2023-03-15T18:41:52.961Z,100288.34
2023-03-15T18:46:54.445Z,100276.63
2023-03-15T18:51:56.609Z,100291.28
2023-03-15T18:56:58.067Z,100298.25
2023-03-15T19:01:59.750Z,100304.34
2023-03-15T19:07:01.223Z,100312.41
2023-03-15T19:12:03.132Z,100319.41
2023-03-15T19:17:04.733Z,100325.56
2023-03-15T19:22:06.330Z,100334.03
2023-03-15T19:27:07.793Z,100338.31
2023-03-15T19:32:09.289Z,100347.84
2023-03-15T19:37:10.722Z,100346.44
2023-03-15T19:42:12.161Z,100357.53
2023-03-15T19:47:13.576Z,100366.25
2023-03-15T19:52:16.026Z,100367.97
2023-03-15T19:57:17.629Z,100380.38
2023-03-15T20:02:19.219Z,100384.66
2023-03-15T20:07:20.647Z,100385.59
2023-03-15T20:12:22.134Z,100394.69
2023-03-15T20:17:23.681Z,100392.22
2023-03-15T20:22:25.112Z,100395.16
2023-03-15T20:27:26.691Z,100402.78
2023-03-15T20:32:28.555Z,100410.19
2023-03-15T20:37:30.935Z,100408.56
2023-03-15T20:42:32.374Z,100410.63
2023-03-15T20:47:34.319Z,100417.16
2023-03-15T20:52:35.768Z,100419.84
2023-03-15T20:57:37.387Z,100420.94
2023-03-15T21:02:40.343Z,100427.50
2023-03-15T21:07:42.590Z,100430.94
2023-03-15T21:12:44.344Z,100437.59
2023-03-15T21:17:49.083Z,100442.03
2023-03-15T21:22:51.400Z,100451.78
2023-03-15T21:27:52.820Z,100454.75
2023-03-15T21:32:54.293Z,100464.03
2023-03-15T21:37:55.781Z,100467.56
2023-03-15T21:42:57.191Z,100476.22
2023-03-15T21:47:58.621Z,100485.03
2023-03-15T21:53:00.095Z,100483.75
2023-03-15T21:58:02.199Z,100488.31
2023-03-15T22:03:04.780Z,100494.50
2023-03-15T22:08:06.496Z,100493.00
2023-03-15T22:13:07.989Z,100498.13
2023-03-15T22:18:09.478Z,100500.47
2023-03-15T22:23:11.210Z,100507.16
2023-03-15T22:28:12.951Z,100505.78
2023-03-15T22:33:15.544Z,100507.75
2023-03-15T22:38:16.982Z,100515.75
2023-03-15T22:43:18.447Z,100513.00
2023-03-15T22:48:19.890Z,100515.16
2023-03-15T22:53:21.321Z,100514.59
2023-03-15T22:58:23.233Z,100517.25
2023-03-15T23:03:26.254Z,100523.78
2023-03-15T23:08:27.850Z,100518.72
2023-03-15T23:13:29.384Z,100524.41
2023-03-15T23:18:34.350Z,100526.50
2023-03-15T23:23:36.270Z,100526.38
2023-03-15T23:28:37.686Z,100538.94
2023-03-15T23:33:39.095Z,100537.28
2023-03-15T23:38:40.883Z,100538.72
2023-03-15T23:43:42.341Z,100552.28
2023-03-15T23:48:43.778Z,100549.28
2023-03-15T23:53:45.301Z,100557.66
2023-03-15T23:58:46.747Z,100557.31
